createdAt,value
2022-08-26T00:02:01.931Z,327.42
2022-08-26T00:04:34.298Z,376.63
2022-08-26T00:07:03.370Z,271.45
2022-08-26T00:09:38.881Z,192.30
2022-08-26T00:12:12.236Z,243.07
2022-08-26T00:14:42.273Z,161.65
2022-08-26T00:17:12.103Z,261.73
2022-08-26T00:19:42.592Z,425.73
2022-08-26T00:22:12.195Z,387.13
2022-08-26T00:24:41.257Z,275.02
2022-08-26T00:27:17.045Z,370.58
2022-08-26T00:29:46.416Z,344.33
2022-08-26T00:32:15.568Z,290.67
2022-08-26T00:34:46.384Z,307.10
2022-08-26T00:37:16.396Z,317.15
2022-08-26T00:39:45.658Z,338.23
2022-08-26T00:42:14.730Z,344.25
2022-08-26T00:44:44.854Z,308.95
2022-08-26T00:47:21.585Z,299.40
2022-08-26T00:49:52.843Z,305.67
2022-08-26T00:52:24.399Z,300.58
2022-08-26T00:55:02.578Z,276.83
2022-08-26T00:57:32.911Z,304.70
2022-08-26T01:00:05.748Z,253.70
2022-08-26T01:02:34.832Z,286.90
2022-08-26T01:05:08.394Z,275.77
2022-08-26T01:07:37.494Z,189.98
2022-08-26T01:10:10.888Z,199.07
2022-08-26T01:12:44.061Z,199.25
2022-08-26T01:15:18.324Z,186.02
2022-08-26T01:17:47.649Z,196.35
2022-08-26T01:20:30.458Z,192.60
2022-08-26T01:23:03.205Z,214.65
2022-08-26T01:25:35.380Z,213.77
2022-08-26T01:28:07.721Z,214.55
2022-08-26T01:30:39.700Z,202.60
2022-08-26T01:33:17.061Z,205.27
2022-08-26T01:35:46.541Z,225.73
2022-08-26T01:38:19.771Z,234.80
2022-08-26T01:40:49.499Z,228.48
2022-08-26T01:43:23.389Z,224.85
2022-08-26T01:45:55.055Z,250.43
2022-08-26T01:48:29.504Z,229.73
2022-08-26T01:50:59.572Z,216.15
2022-08-26T01:53:30.960Z,174.32
2022-08-26T01:56:03.962Z,163.00
2022-08-26T01:58:37.782Z,231.20
2022-08-26T02:01:09.615Z,137.43
2022-08-26T02:03:51.003Z,130.20
2022-08-26T02:06:21.343Z,156.43
2022-08-26T02:08:55.595Z,195.13
2022-08-26T02:11:24.897Z,220.30
2022-08-26T02:13:59.821Z,174.90
2022-08-26T02:16:33.847Z,194.20
2022-08-26T02:19:06.064Z,184.98
2022-08-26T02:21:37.557Z,182.75
2022-08-26T02:24:13.377Z,221.43
2022-08-26T02:26:43.226Z,210.25
2022-08-26T02:29:19.762Z,152.70
2022-08-26T02:31:50.414Z,165.35
2022-08-26T02:34:28.238Z,205.63
2022-08-26T02:37:02.338Z,229.25
2022-08-26T02:39:35.080Z,180.18
2022-08-26T02:42:05.473Z,280.98
2022-08-26T02:44:34.806Z,269.13
2022-08-26T02:47:05.211Z,284.55
2022-08-26T02:49:34.330Z,296.88
2022-08-26T02:52:03.482Z,364.38
2022-08-26T02:54:33.954Z,366.15
2022-08-26T02:57:03.264Z,306.13
2022-08-26T02:59:32.625Z,313.17
2022-08-26T03:02:03.216Z,416.75
2022-08-26T03:04:33.361Z,446.20
2022-08-26T03:07:03.109Z,443.10
2022-08-26T03:09:34.393Z,430.52
2022-08-26T03:12:03.613Z,382.83
2022-08-26T03:14:32.965Z,441.38
2022-08-26T03:17:02.434Z,448.95
2022-08-26T03:19:33.148Z,505.02
2022-08-26T03:22:04.928Z,563.45
2022-08-26T03:24:35.335Z,537.08
2022-08-26T03:27:05.936Z,556.08
2022-08-26T03:29:53.961Z,519.33
2022-08-26T03:32:22.945Z,363.13
2022-08-26T03:34:56.650Z,443.88
2022-08-26T03:37:25.639Z,389.27
2022-08-26T03:39:56.498Z,477.90
2022-08-26T03:42:25.576Z,411.67
2022-08-26T03:44:54.571Z,335.58
2022-08-26T03:47:23.541Z,481.73
2022-08-26T03:49:52.793Z,582.78
2022-08-26T03:52:22.502Z,696.47
2022-08-26T03:54:51.496Z,591.95
2022-08-26T03:57:21.912Z,571.58
2022-08-26T03:59:51.480Z,624.58
2022-08-26T04:02:20.964Z,545.60
2022-08-26T04:04:50.060Z,449.83
2022-08-26T04:07:19.262Z,549.70
2022-08-26T04:09:48.805Z,372.80
2022-08-26T04:12:17.831Z,436.33
2022-08-26T04:14:48.273Z,403.40
2022-08-26T04:17:17.333Z,486.48
2022-08-26T04:19:46.443Z,472.08
2022-08-26T04:22:15.656Z,473.30
2022-08-26T04:24:53.432Z,500.83
2022-08-26T04:27:22.402Z,374.23
2022-08-26T04:29:55.219Z,322.38
2022-08-26T04:32:24.414Z,284.27
2022-08-26T04:34:53.700Z,249.38
2022-08-26T04:37:22.764Z,215.57
2022-08-26T04:39:53.554Z,166.50
2022-08-26T04:42:23.267Z,108.63
2022-08-26T04:44:56.588Z,117.32
2022-08-26T04:47:29.198Z,117.32
2022-08-26T04:50:01.929Z,115.35
2022-08-26T04:52:31.663Z,122.90
2022-08-26T04:55:00.741Z,116.03
2022-08-26T04:57:29.802Z,124.93
2022-08-26T05:00:00.718Z,125.43
2022-08-26T05:02:31.641Z,119.07
2022-08-26T05:05:01.919Z,114.18
2022-08-26T05:07:32.743Z,108.70
2022-08-26T05:10:01.882Z,121.78
2022-08-26T05:12:32.863Z,110.07
2022-08-26T05:15:03.287Z,110.43
2022-08-26T05:17:33.492Z,117.50
2022-08-26T05:20:02.492Z,117.85
2022-08-26T05:22:33.051Z,108.40
2022-08-26T05:25:02.105Z,94.10
2022-08-26T05:27:31.509Z,96.15
2022-08-26T05:30:03.433Z,88.10
2022-08-26T05:32:33.253Z,80.15
2022-08-26T05:35:02.381Z,82.97
2022-08-26T05:37:31.702Z,78.53
2022-08-26T05:40:00.902Z,79.70
2022-08-26T05:42:34.820Z,75.85
2022-08-26T05:45:06.647Z,71.72
2022-08-26T05:47:35.968Z,67.47
2022-08-26T05:50:05.823Z,65.85
2022-08-26T05:52:34.984Z,68.22
2022-08-26T05:55:03.967Z,68.57
2022-08-26T05:57:35.368Z,66.28
2022-08-26T06:00:09.819Z,64.80
2022-08-26T06:02:41.192Z,64.13
2022-08-26T06:05:10.688Z,58.20
2022-08-26T06:07:57.460Z,53.53
2022-08-26T06:10:32.670Z,50.65
2022-08-26T06:13:09.253Z,47.85
2022-08-26T06:15:45.731Z,47.42
2022-08-26T06:18:16.823Z,39.95
2022-08-26T06:20:56.900Z,40.67
2022-08-26T06:23:46.282Z,41.83
2022-08-26T06:26:16.566Z,37.25
2022-08-26T06:28:45.803Z,29.70
2022-08-26T06:31:16.683Z,24.33
2022-08-26T06:33:46.308Z,19.98
2022-08-26T06:36:20.575Z,18.90
2022-08-26T06:38:50.590Z,18.17
2022-08-26T06:41:21.384Z,17.13
2022-08-26T06:43:50.849Z,19.30
2022-08-26T06:46:23.014Z,20.75
2022-08-26T06:48:55.950Z,20.60
2022-08-26T06:51:28.184Z,21.15
2022-08-26T06:54:00.323Z,19.55
2022-08-26T06:56:37.275Z,17.75
2022-08-26T06:59:07.687Z,16.13
2022-08-26T07:01:43.015Z,14.25
2022-08-26T07:04:22.139Z,13.93
2022-08-26T07:06:53.923Z,13.45
2022-08-26T07:09:24.016Z,13.60
2022-08-26T07:11:55.968Z,11.80
2022-08-26T07:14:26.259Z,12.57
2022-08-26T07:16:56.857Z,14.20
2022-08-26T07:19:30.657Z,14.43
2022-08-26T07:22:03.644Z,13.38
2022-08-26T07:24:35.076Z,13.15
2022-08-26T07:27:08.703Z,13.65
2022-08-26T07:29:39.630Z,16.05
2022-08-26T07:32:11.614Z,13.85
2022-08-26T07:34:41.837Z,13.65
2022-08-26T07:37:11.058Z,12.63
2022-08-26T07:39:41.831Z,11.70
2022-08-26T07:42:14.524Z,11.45
2022-08-26T07:44:44.896Z,12.02
2022-08-26T07:47:24.994Z,11.43
2022-08-26T07:49:56.101Z,10.00
2022-08-26T07:52:27.439Z,9.10
2022-08-26T07:54:58.382Z,8.63
2022-08-26T07:57:27.642Z,8.05
2022-08-26T07:59:57.231Z,8.05
2022-08-26T08:02:29.237Z,8.32
2022-08-26T08:04:59.570Z,7.70
2022-08-26T08:07:38.746Z,8.13
2022-08-26T08:10:19.215Z,7.65
2022-08-26T08:12:51.701Z,7.03
2022-08-26T08:15:25.054Z,7.68
2022-08-26T08:17:58.847Z,7.90
2022-08-26T08:20:30.208Z,7.80
2022-08-26T08:22:59.533Z,7.32
2022-08-26T08:25:29.324Z,7.70
2022-08-26T08:27:58.490Z,7.22
2022-08-26T08:30:28.201Z,7.60
2022-08-26T08:32:58.653Z,7.00
2022-08-26T08:35:28.723Z,6.97
2022-08-26T08:37:58.874Z,7.15
2022-08-26T08:40:29.320Z,6.80
2022-08-26T08:43:03.988Z,7.25
2022-08-26T08:45:40.581Z,6.82
2022-08-26T08:48:20.011Z,6.90
2022-08-26T08:50:55.507Z,6.65
2022-08-26T08:53:33.000Z,6.65
2022-08-26T08:56:12.588Z,6.40
2022-08-26T08:58:52.055Z,6.72
2022-08-26T09:01:29.582Z,6.93
2022-08-26T09:04:18.946Z,6.60
2022-08-26T09:06:53.046Z,7.22
2022-08-26T09:09:31.282Z,6.82
2022-08-26T09:12:03.110Z,6.75
2022-08-26T09:14:33.210Z,5.70
2022-08-26T09:17:09.006Z,5.88
2022-08-26T09:19:44.329Z,6.00
2022-08-26T09:22:29.663Z,6.10
2022-08-26T09:24:58.641Z,5.93
2022-08-26T09:27:42.665Z,5.93
2022-08-26T09:30:15.309Z,6.28
2022-08-26T09:32:55.940Z,5.55
2022-08-26T09:35:34.179Z,6.57
2022-08-26T09:38:03.198Z,6.85
2022-08-26T09:40:35.299Z,6.22
2022-08-26T09:43:11.515Z,6.32
2022-08-26T09:45:51.123Z,6.32
2022-08-26T09:48:30.254Z,6.22
2022-08-26T09:51:03.565Z,6.60
2022-08-26T09:53:36.744Z,7.13
2022-08-26T09:56:16.884Z,6.75
2022-08-26T09:58:48.434Z,6.32
2022-08-26T10:01:30.412Z,5.78
2022-08-26T10:04:09.918Z,5.85
2022-08-26T10:06:43.389Z,6.78
2022-08-26T10:09:17.402Z,6.53
2022-08-26T10:11:52.207Z,5.80
2022-08-26T10:14:26.375Z,6.37
2022-08-26T10:17:03.408Z,6.53
2022-08-26T10:19:41.774Z,6.22
2022-08-26T10:22:36.601Z,5.55
2022-08-26T10:25:12.490Z,5.63
2022-08-26T10:27:51.132Z,6.18
2022-08-26T10:30:30.546Z,6.10
2022-08-26T10:33:03.843Z,5.90
2022-08-26T10:35:36.267Z,6.40
2022-08-26T10:38:12.326Z,6.63
2022-08-26T10:40:53.124Z,6.78
2022-08-26T10:43:26.797Z,6.85
2022-08-26T10:46:00.763Z,5.93
2022-08-26T10:48:40.604Z,6.07
2022-08-26T10:51:11.556Z,5.80
2022-08-26T10:53:52.908Z,6.25
2022-08-26T10:56:34.211Z,6.03
2022-08-26T10:59:12.550Z,5.80
2022-08-26T11:01:50.949Z,4.88
2022-08-26T11:04:48.694Z,6.13
2022-08-26T11:07:39.921Z,5.95
2022-08-26T11:10:35.678Z,6.22
2022-08-26T11:13:07.116Z,6.65
2022-08-26T11:16:03.576Z,5.85
2022-08-26T11:18:47.246Z,5.72
2022-08-26T11:21:49.409Z,6.20
2022-08-26T11:24:41.698Z,6.65
2022-08-26T11:27:34.348Z,5.45
2022-08-26T11:30:06.992Z,5.35
2022-08-26T11:32:51.899Z,5.50
2022-08-26T11:35:49.825Z,5.30
2022-08-26T11:38:30.036Z,5.50
2022-08-26T11:41:09.683Z,5.18
2022-08-26T11:43:42.684Z,5.93
2022-08-26T11:46:13.531Z,5.57
2022-08-26T11:48:44.708Z,5.68
2022-08-26T11:51:24.193Z,6.63
2022-08-26T11:54:09.075Z,6.22
2022-08-26T11:56:42.052Z,5.80
2022-08-26T11:59:16.733Z,5.30
2022-08-26T12:01:50.316Z,5.90
2022-08-26T12:04:28.895Z,6.10
2022-08-26T12:07:00.786Z,5.72
2022-08-26T12:09:33.040Z,6.53
2022-08-26T12:12:14.189Z,7.22
2022-08-26T12:14:44.869Z,6.32
2022-08-26T12:17:16.909Z,5.97
2022-08-26T12:19:46.478Z,4.95
2022-08-26T12:22:20.958Z,4.68
2022-08-26T12:24:53.749Z,4.70
2022-08-26T12:27:24.946Z,5.05
2022-08-26T12:30:10.123Z,5.55
2022-08-26T12:32:56.543Z,4.85
2022-08-26T12:35:29.429Z,5.47
2022-08-26T12:37:59.678Z,5.55
2022-08-26T12:40:34.445Z,5.53
2022-08-26T12:45:38.466Z,5.55
2022-08-26T12:48:24.471Z,5.23
2022-08-26T12:50:54.400Z,5.38
2022-08-26T12:53:25.458Z,5.43
2022-08-26T12:55:57.900Z,5.47
2022-08-26T12:58:31.861Z,5.40
2022-08-26T13:01:22.787Z,5.70
2022-08-26T13:03:52.335Z,5.07
2022-08-26T13:06:31.481Z,5.45
2022-08-26T13:09:02.313Z,5.53
2022-08-26T13:11:33.750Z,5.53
2022-08-26T13:14:07.264Z,4.97
2022-08-26T13:16:39.436Z,5.70
2022-08-26T13:19:10.952Z,4.93
2022-08-26T13:21:45.170Z,5.55
2022-08-26T13:24:17.391Z,5.28
2022-08-26T13:26:49.157Z,5.50
2022-08-26T13:29:19.766Z,5.57
2022-08-26T13:31:52.659Z,5.30
2022-08-26T13:34:24.198Z,5.05
2022-08-26T13:36:56.477Z,4.95
2022-08-26T13:39:26.548Z,5.65
2022-08-26T13:41:56.184Z,5.60
2022-08-26T13:44:25.551Z,5.43
2022-08-26T13:46:56.038Z,5.80
2022-08-26T13:49:25.182Z,5.15
2022-08-26T13:51:54.367Z,5.32
2022-08-26T13:54:23.424Z,4.85
2022-08-26T13:56:52.469Z,5.18
2022-08-26T13:59:21.801Z,5.20
2022-08-26T14:01:50.815Z,6.05
2022-08-26T14:04:27.240Z,5.30
2022-08-26T14:06:56.717Z,5.47
2022-08-26T14:09:25.894Z,5.55
2022-08-26T14:11:55.425Z,5.80
2022-08-26T14:14:25.250Z,5.30
2022-08-26T14:16:59.830Z,5.47
2022-08-26T14:19:31.780Z,5.78
2022-08-26T14:22:01.933Z,5.50
2022-08-26T14:24:31.566Z,5.25
2022-08-26T14:27:00.620Z,5.43
2022-08-26T14:29:29.664Z,5.07
2022-08-26T14:32:01.630Z,5.80
2022-08-26T14:34:32.060Z,6.80
2022-08-26T14:37:08.213Z,5.78
2022-08-26T14:39:38.343Z,5.90
2022-08-26T14:42:09.250Z,6.25
2022-08-26T14:44:38.699Z,5.80
2022-08-26T14:47:08.311Z,6.15
2022-08-26T14:49:38.959Z,6.95
2022-08-26T14:52:08.149Z,5.72
2022-08-26T14:54:37.592Z,5.70
2022-08-26T14:57:09.096Z,5.78
2022-08-26T14:59:41.243Z,5.90
2022-08-26T15:02:13.761Z,5.80
2022-08-26T15:04:48.570Z,6.10
2022-08-26T15:07:17.631Z,5.95
2022-08-26T15:09:46.851Z,5.88
2022-08-26T15:12:15.961Z,5.70
2022-08-26T15:14:45.114Z,5.70
2022-08-26T15:17:14.625Z,6.35
2022-08-26T15:19:43.725Z,6.13
2022-08-26T15:22:14.242Z,5.95
2022-08-26T15:24:43.485Z,6.07
2022-08-26T15:27:13.905Z,6.82
2022-08-26T15:29:44.006Z,5.85
2022-08-26T15:32:13.382Z,6.47
2022-08-26T15:34:42.526Z,6.03
2022-08-26T15:37:11.779Z,6.07
2022-08-26T15:39:42.378Z,7.07
2022-08-26T15:42:11.766Z,6.45
2022-08-26T15:44:44.972Z,5.90
2022-08-26T15:47:14.518Z,6.57
2022-08-26T15:49:43.595Z,6.30
2022-08-26T15:52:12.691Z,6.53
2022-08-26T15:54:43.212Z,6.45
2022-08-26T15:57:15.362Z,7.03
2022-08-26T15:59:45.632Z,7.18
2022-08-26T16:02:14.826Z,7.60
2022-08-26T16:04:44.251Z,6.70
2022-08-26T16:07:13.455Z,6.47
2022-08-26T16:09:44.050Z,6.93
2022-08-26T16:12:13.186Z,7.07
2022-08-26T16:14:43.058Z,8.20
2022-08-26T16:17:12.425Z,7.68
2022-08-26T16:19:41.517Z,7.45
2022-08-26T16:22:10.605Z,8.27
2022-08-26T16:24:39.752Z,8.02
2022-08-26T16:27:10.392Z,7.43
2022-08-26T16:29:40.047Z,8.38
2022-08-26T16:32:09.405Z,7.20
2022-08-26T16:34:38.456Z,7.32
2022-08-26T16:37:24.510Z,7.55
2022-08-26T16:39:53.672Z,7.25
2022-08-26T16:42:24.416Z,7.35
2022-08-26T16:44:53.524Z,8.00
2022-08-26T16:47:24.291Z,7.45
2022-08-26T16:49:53.858Z,7.32
2022-08-26T16:52:23.129Z,7.57
2022-08-26T16:54:57.688Z,7.95
2022-08-26T16:57:28.187Z,6.95
2022-08-26T16:59:57.369Z,7.35
2022-08-26T17:02:26.759Z,7.10
2022-08-26T17:04:55.957Z,7.30
2022-08-26T17:07:25.578Z,7.50
2022-08-26T17:09:54.883Z,7.50
2022-08-26T17:12:24.709Z,7.97
2022-08-26T17:14:55.287Z,8.00
2022-08-26T17:17:24.607Z,7.70
2022-08-26T17:19:53.817Z,6.97
2022-08-26T17:22:23.075Z,7.95
2022-08-26T17:24:52.243Z,7.85
2022-08-26T17:27:21.316Z,8.45
2022-08-26T17:29:50.357Z,8.10
2022-08-26T17:32:20.988Z,8.18
2022-08-26T17:34:50.026Z,8.50
2022-08-26T17:37:19.022Z,7.93
2022-08-26T17:39:48.292Z,8.18
2022-08-26T17:42:17.414Z,8.20
2022-08-26T17:44:48.467Z,8.82
2022-08-26T17:47:17.612Z,7.60
2022-08-26T17:49:48.101Z,8.73
2022-08-26T17:52:17.104Z,8.73
2022-08-26T17:54:46.301Z,8.27
2022-08-26T17:57:15.465Z,8.73
2022-08-26T17:59:44.495Z,9.38
2022-08-26T18:02:15.584Z,8.70
2022-08-26T18:04:44.936Z,8.90
2022-08-26T18:07:15.445Z,8.85
2022-08-26T18:09:44.581Z,9.23
2022-08-26T18:12:14.184Z,9.85
2022-08-26T18:14:43.538Z,9.40
2022-08-26T18:17:12.749Z,12.85
2022-08-26T18:19:47.039Z,12.70
2022-08-26T18:22:17.923Z,13.48
2022-08-26T18:24:55.411Z,11.73
2022-08-26T18:27:28.285Z,11.02
2022-08-26T18:29:58.219Z,10.10
2022-08-26T18:32:27.288Z,11.35
2022-08-26T18:34:56.374Z,9.77
2022-08-26T18:37:29.518Z,9.20
2022-08-26T18:40:00.655Z,9.02
2022-08-26T18:42:30.163Z,10.45
2022-08-26T18:44:59.201Z,10.05
2022-08-26T18:47:28.468Z,9.02
2022-08-26T18:49:57.769Z,9.80
2022-08-26T18:52:28.334Z,9.18
2022-08-26T18:54:57.356Z,8.90
2022-08-26T18:57:26.571Z,9.15
2022-08-26T18:59:55.607Z,9.38
2022-08-26T19:02:24.815Z,9.30
2022-08-26T19:04:54.673Z,9.07
2022-08-26T19:07:23.821Z,9.43
2022-08-26T19:09:54.306Z,9.73
2022-08-26T19:12:23.476Z,9.48
2022-08-26T19:14:56.056Z,8.90
2022-08-26T19:17:25.067Z,9.38
2022-08-26T19:19:54.783Z,9.07
2022-08-26T19:22:23.807Z,8.98
2022-08-26T19:24:54.284Z,9.75
2022-08-26T19:27:23.273Z,9.13
2022-08-26T19:29:52.533Z,9.70
2022-08-26T19:32:24.374Z,9.90
2022-08-26T19:34:53.646Z,12.38
2022-08-26T19:37:23.054Z,14.60
2022-08-26T19:39:53.479Z,16.10
2022-08-26T19:42:22.561Z,22.42
2022-08-26T19:45:24.885Z,24.30
2022-08-26T19:47:54.499Z,32.03
2022-08-26T19:50:24.654Z,32.75
2022-08-26T19:52:54.110Z,29.92
2022-08-26T19:55:26.256Z,27.48
2022-08-26T19:57:55.457Z,22.77
2022-08-26T20:00:26.656Z,21.75
2022-08-26T20:02:56.705Z,21.45
2022-08-26T20:05:27.633Z,21.55
2022-08-26T20:07:56.786Z,20.65
2022-08-26T20:10:27.469Z,22.13
2022-08-26T20:12:56.521Z,24.80
2022-08-26T20:15:25.590Z,19.25
2022-08-26T20:17:58.081Z,19.88
2022-08-26T20:20:44.642Z,20.35
2022-08-26T20:23:13.791Z,28.33
2022-08-26T20:25:45.313Z,54.28
2022-08-26T20:28:14.480Z,38.60
2022-08-26T20:30:43.584Z,46.03
2022-08-26T20:33:13.103Z,39.75
2022-08-26T20:35:42.265Z,40.10
2022-08-26T20:38:12.042Z,38.45
2022-08-26T20:40:42.324Z,39.58
2022-08-26T20:43:12.914Z,32.15
2022-08-26T20:45:42.345Z,36.03
2022-08-26T20:48:11.726Z,37.15
2022-08-26T20:50:41.001Z,37.35
2022-08-26T20:53:10.081Z,45.10
2022-08-26T20:55:39.184Z,43.45
2022-08-26T20:58:08.434Z,41.53
2022-08-26T21:00:40.562Z,43.97
2022-08-26T21:03:09.669Z,50.15
2022-08-26T21:05:38.763Z,55.58
2022-08-26T21:08:07.859Z,45.55
2022-08-26T21:10:37.838Z,50.38
2022-08-26T21:13:07.521Z,66.95
2022-08-26T21:15:37.726Z,57.03
2022-08-26T21:18:09.173Z,60.20
2022-08-26T21:20:38.893Z,55.30
2022-08-26T21:23:08.095Z,68.45
2022-08-26T21:25:37.211Z,61.22
2022-08-26T21:28:06.443Z,67.43
2022-08-26T21:30:39.038Z,68.93
2022-08-26T21:33:09.876Z,56.67
2022-08-26T21:35:38.963Z,62.17
2022-08-26T21:38:08.039Z,51.72
2022-08-26T21:40:37.257Z,49.05
2022-08-26T21:43:06.343Z,50.78
2022-08-26T21:45:40.806Z,87.32
2022-08-26T21:48:11.590Z,56.80
2022-08-26T21:50:40.986Z,58.45
2022-08-26T21:53:10.449Z,63.60
2022-08-26T21:55:39.652Z,64.38
2022-08-26T21:58:08.799Z,75.13
2022-08-26T22:00:38.041Z,68.50
2022-08-26T22:03:07.129Z,82.85
2022-08-26T22:05:44.254Z,75.75
2022-08-26T22:08:13.997Z,95.35
2022-08-26T22:10:44.065Z,105.68
2022-08-26T22:13:15.372Z,88.18
2022-08-26T22:15:45.021Z,84.90
2022-08-26T22:18:14.305Z,99.03
2022-08-26T22:20:45.624Z,107.38
2022-08-26T22:23:14.998Z,80.05
2022-08-26T22:25:44.097Z,70.70
2022-08-26T22:28:13.406Z,63.50
2022-08-26T22:30:43.814Z,61.42
2022-08-26T22:33:13.139Z,65.68
2022-08-26T22:35:45.174Z,68.22
2022-08-26T22:38:14.477Z,71.95
2022-08-26T22:40:46.095Z,61.63
2022-08-26T22:43:15.659Z,61.75
2022-08-26T22:45:47.037Z,60.22
2022-08-26T22:48:18.088Z,62.53
2022-08-26T22:50:49.458Z,61.90
2022-08-26T22:53:19.885Z,62.70
2022-08-26T22:55:49.100Z,61.63
2022-08-26T22:58:19.873Z,68.78
2022-08-26T23:00:50.005Z,56.97
2022-08-26T23:03:20.475Z,57.90
2022-08-26T23:05:51.377Z,62.83
2022-08-26T23:08:23.494Z,62.28
2022-08-26T23:10:53.312Z,64.40
2022-08-26T23:13:22.338Z,65.00
2022-08-26T23:16:00.373Z,70.07
2022-08-26T23:18:29.678Z,67.78
2022-08-26T23:21:00.093Z,68.60
2022-08-26T23:23:29.209Z,67.18
2022-08-26T23:25:58.565Z,69.00
2022-08-26T23:28:27.768Z,69.18
2022-08-26T23:30:56.817Z,71.03
2022-08-26T23:33:45.830Z,69.70
2022-08-26T23:36:18.066Z,68.50
2022-08-26T23:38:52.611Z,71.15
2022-08-26T23:43:52.786Z,68.60
2022-08-26T23:46:22.150Z,67.20
2022-08-26T23:48:51.251Z,68.82
2022-08-26T23:51:39.249Z,78.40
2022-08-26T23:54:08.288Z,77.10
2022-08-26T23:56:38.884Z,79.57
2022-08-26T23:59:08.622Z,106.88
